Time;durP1;ratioP1;P1;durP2;ratioP2;P2;SDS_P1;SDS_P2;PMS_P1;PMS_P2;Temp;Humidity;BMP_temperature;BMP_pressure;BME280_temperature;BME280_humidity;BME280_pressure;Samples;Min_cycle;Max_cycle;Signal;HPM_P1;HPM_P2
2022/09/26 00:40:55;1917948.00;6.39;3457.18;673.00;0.00;1.79;;;;;17.80;1.00;;;;;;2274797;61;988;-89
2022/09/26 00:43:22;691186.00;2.30;1191.96;23324.00;0.08;41.03;;;;;17.80;1.00;;;;;;2421281;40;3576;-87
2022/09/26 01:51:12;1702059.00;5.67;3029.43;0.00;0.00;0.62;;;;;17.70;1.00;;;;;;2270527;61;1024;-92
2022/09/26 02:13:51;2326015.00;7.75;4316.65;0.00;0.00;0.62;;;;;17.10;1.00;;;;;;2270118;61;1255;-89
2022/09/26 02:18:57;1578230.00;5.26;2791.21;0.00;0.00;0.62;;;;;17.10;1.00;;;;;;2271279;61;1314;-89
2022/09/26 02:24:03;130157.00;0.43;225.60;0.00;0.00;0.62;;;;;17.20;1.00;;;;;;2532522;40;2086;31
2022/09/26 03:04:30;2072228.00;6.91;3773.70;0.00;0.00;0.62;;;;;16.80;1.00;;;;;;2270930;61;1024;-89
2022/09/26 03:47:20;1857148.00;6.19;3335.01;0.00;0.00;0.62;;;;;16.40;1.00;;;;;;2270552;61;1091;-90
2022/09/26 03:57:16;2582273.00;8.61;4896.53;0.00;0.00;0.62;;;;;16.60;1.00;;;;;;2462334;55;3621;31
2022/09/26 05:00:12;2177337.00;7.26;3995.04;123897.00;0.41;214.80;;;;;17.80;1.00;;;;;;2273188;61;1149;-90
2022/09/26 06:10:12;1770558.00;5.90;3163.36;0.00;0.00;0.62;;;;;17.90;1.00;;;;;;2279126;61;1292;-87
2022/09/26 06:44:58;1406980.00;4.69;2469.28;0.00;0.00;0.62;;;;;17.60;1.00;;;;;;2455870;55;3590;-86
2022/09/26 07:19:59;1008246.00;3.36;1747.08;35999.00;0.12;62.97;;;;;17.60;1.00;;;;;;2271147;61;1306;-89
2022/09/26 07:22:26;704309.00;2.35;1214.71;0.00;0.00;0.62;;;;;17.90;1.00;;;;;;2269141;61;1264;-88
2022/09/26 07:24:53;597368.00;1.99;1029.68;0.00;0.00;0.62;;;;;17.80;1.00;;;;;;2269195;61;865;-90
2022/09/26 07:54:41;904407.00;3.01;1563.86;0.00;0.00;0.62;;;;;17.30;1.00;;;;;;2274217;61;1219;-87
2022/09/26 07:59:36;729482.00;2.43;1258.40;0.00;0.00;0.62;;;;;17.90;1.00;;;;;;2274189;61;1402;-88
2022/09/26 08:04:32;1151685.00;3.84;2003.11;0.00;0.00;0.62;;;;;18.60;1.00;;;;;;2274185;61;1260;-88
2022/09/26 08:09:28;953978.00;3.18;1651.13;0.00;0.00;0.62;;;;;19.00;1.00;;;;;;2269843;61;1328;-87
2022/09/26 08:11:57;431364.00;1.44;743.73;0.00;0.00;0.62;;;;;19.00;1.00;;;;;;2268133;61;1388;-88
2022/09/26 08:14:24;523765.00;1.75;902.75;0.00;0.00;0.62;;;;;18.90;1.00;;;;;;2268100;61;2383;-88
2022/09/26 08:16:55;552956.00;1.84;953.06;0.00;0.00;0.62;;;;;18.90;1.00;;;;;;2268321;61;1923;-87
2022/09/26 08:19:23;517871.00;1.73;892.60;0.00;0.00;0.62;;;;;18.80;1.00;;;;;;2268332;61;1078;-87
2022/09/26 08:24:18;929947.00;3.10;1608.78;26921.00;0.09;47.25;;;;;18.30;1.00;;;;;;2274211;61;1384;-87
2022/09/26 08:29:15;1915208.00;6.38;3451.65;26312.00;0.09;46.20;;;;;18.40;1.00;;;;;;2273662;61;1404;-87
2022/09/26 08:34:20;461360.00;1.54;795.32;0.00;0.00;0.62;;;;;19.10;1.00;;;;;;1604437;60;1700;-86
2022/09/26 08:47:16;618142.00;2.06;1065.56;0.00;0.00;0.62;;;;;19.70;1.00;;;;;;2273456;61;1284;-87
2022/09/26 08:50:08;450310.00;1.50;776.32;0.00;0.00;0.62;;;;;19.70;1.00;;;;;;2272120;61;1142;-86
2022/09/26 08:55:13;552377.00;1.84;952.06;0.00;0.00;0.62;;;;;20.00;1.00;;;;;;2279454;55;3643;-86
2022/09/26 08:57:44;425253.00;1.42;733.22;0.00;0.00;0.62;;;;;19.90;1.00;;;;;;2325298;55;3774;-87
2022/09/26 09:00:18;560403.00;1.87;965.90;0.00;0.00;0.62;;;;;19.80;1.00;;;;;;2276349;61;1049;-88
2022/09/26 09:03:00;519907.00;1.73;896.10;0.00;0.00;0.62;;;;;19.80;1.00;;;;;;2274507;61;1439;-89
2022/09/26 09:05:31;456389.00;1.52;786.77;0.00;0.00;0.62;;;;;19.90;1.00;;;;;;2272317;61;919;-88
2022/09/26 09:08:00;686266.00;2.29;1183.43;54532.00;0.18;95.02;;;;;19.80;1.00;;;;;;2272186;61;1590;-89
2022/09/26 09:18:23;125906488.00;419.69;80864400.00;0.00;0.00;0.62;;;;;19.40;1.00;;;;;;1536508;59;2890;-87
2022/09/26 09:20:57;551425.00;1.84;950.42;0.00;0.00;0.62;;;;;19.20;1.00;;;;;;2276191;61;2369;-88
2022/09/26 09:26:10;985209.00;3.28;1706.29;87434.00;0.29;151.88;;;;;19.50;1.00;;;;;;2023018;59;2741;-88
2022/09/26 09:29:00;761313.00;2.54;1313.73;0.00;0.00;0.62;;;;;19.40;1.00;;;;;;2283275;56;3777;-87
2022/09/26 09:34:10;991949.00;3.31;1718.22;156275.00;0.52;270.62;;;;;19.30;1.00;;;;;;2273583;61;1396;-87
2022/09/26 09:36:58;776674.00;2.59;1340.47;0.00;0.00;0.62;;;;;19.70;1.00;;;;;;2318485;56;3741;-87
2022/09/26 09:45:06;743379.00;2.48;1282.55;0.00;0.00;0.62;;;;;20.20;1.00;;;;;;634197;40;3199;-86
2022/09/26 09:50:22;933071.00;3.11;1614.28;0.00;0.00;0.62;;;;;20.10;1.00;;;;;;2292881;40;3444;-86
2022/09/26 09:53:05;680154.00;2.27;1172.84;0.00;0.00;0.62;;;;;19.80;1.00;;;;;;2274163;61;1471;-87
2022/09/26 09:55:51;530115.00;1.77;913.69;0.00;0.00;0.62;;;;;19.80;1.00;;;;;;2272148;61;1994;-87
2022/09/26 09:58:42;773520.00;2.58;1334.98;66487.00;0.22;115.69;;;;;19.60;1.00;;;;;;2272107;61;1148;-86
2022/09/26 10:01:18;902103.00;3.01;1559.81;91914.00;0.31;159.61;;;;;19.30;1.00;;;;;;2272007;61;1037;-86
2022/09/26 10:04:03;734975.00;2.45;1267.94;62663.00;0.21;109.08;;;;;19.50;1.00;;;;;;2272136;61;1454;-86
2022/09/26 10:17:22;1787705.00;5.96;3197.14;66069.00;0.22;114.97;;;;;20.10;1.00;;;;;;2289286;40;3501;-87
2022/09/26 10:19:52;943638.00;3.15;1632.90;82878.00;0.28;144.01;;;;;20.70;1.00;;;;;;2276090;61;1445;-87
2022/09/26 10:24:54;1258844.00;4.20;2196.98;0.00;0.00;0.62;;;;;20.60;1.00;;;;;;2278040;61;1346;-87
2022/09/26 10:35:45;692689.00;2.31;1194.56;0.00;0.00;0.62;;;;;20.50;1.00;;;;;;2307409;56;2076;-88
2022/09/26 10:38:21;507354.00;1.69;874.49;0.00;0.00;0.62;;;;;20.40;1.00;;;;;;2301344;56;3767;-87
2022/09/26 10:40:52;486756.00;1.62;839.03;0.00;0.00;0.62;;;;;20.40;1.00;;;;;;2272615;61;1558;-88
2022/09/26 10:43:21;444744.00;1.48;766.74;0.00;0.00;0.62;;;;;20.60;1.00;;;;;;2282197;40;3733;-87
2022/09/26 10:50:54;1260381.00;4.20;2199.78;0.00;0.00;0.62;;;;;20.00;1.00;;;;;;2274218;61;1424;-88
2022/09/26 10:53:22;507806.00;1.69;875.26;0.00;0.00;0.62;;;;;20.00;1.00;;;;;;2272716;61;1526;-88
2022/09/26 10:55:56;977482.00;3.26;1692.63;73245.00;0.24;127.37;;;;;19.70;1.00;;;;;;2272632;61;1931;-86
2022/09/26 10:58:28;520538.00;1.74;897.19;0.00;0.00;0.62;;;;;19.50;1.00;;;;;;2272753;61;1078;-87
2022/09/26 11:00:59;925266.00;3.08;1600.54;85363.00;0.28;148.30;;;;;19.30;1.00;;;;;;2272680;61;1121;-87
2022/09/26 11:03:38;764788.00;2.55;1319.78;47963.00;0.16;83.66;;;;;19.50;1.00;;;;;;2272673;61;1307;-86
2022/09/26 11:06:21;520242.00;1.73;896.68;0.00;0.00;0.62;;;;;19.30;1.00;;;;;;2272721;61;1554;-87
2022/09/26 11:08:53;704125.00;2.35;1214.39;0.00;0.00;0.62;;;;;19.50;1.00;;;;;;2272400;61;1475;-87
2022/09/26 11:11:21;828528.00;2.76;1430.92;370.00;0.00;1.26;;;;;19.50;1.00;;;;;;2272574;61;892;-87
2022/09/26 11:14:03;839442.00;2.80;1450.00;39057.00;0.13;68.26;;;;;19.80;1.00;;;;;;2272593;61;1394;-87
2022/09/26 11:16:40;463840.00;1.55;799.59;20324.00;0.07;35.83;;;;;19.90;1.00;;;;;;2272522;61;2014;-88
2022/09/26 11:19:18;514764.00;1.72;887.25;0.00;0.00;0.62;;;;;19.70;1.00;;;;;;2272597;61;1268;-87
2022/09/26 11:21:56;677463.00;2.26;1168.18;21045.00;0.07;37.08;;;;;19.70;1.00;;;;;;2272642;61;1529;-87
2022/09/26 11:24:36;682408.00;2.27;1176.75;352.00;0.00;1.23;;;;;19.70;1.00;;;;;;2269117;61;1209;-86
2022/09/26 11:27:22;659459.00;2.20;1137.00;0.00;0.00;0.62;;;;;19.80;1.00;;;;;;2269056;61;1168;-87
2022/09/26 11:29:57;709957.00;2.37;1224.51;52863.00;0.18;92.14;;;;;19.80;1.00;;;;;;2272609;61;1493;-87
2022/09/26 11:32:30;617943.00;2.06;1065.21;15737.00;0.05;27.89;;;;;20.30;1.00;;;;;;2272545;61;1345;-86
2022/09/26 11:35:01;507402.00;1.69;874.57;0.00;0.00;0.62;;;;;20.90;1.00;;;;;;2272651;61;1082;-88
2022/09/26 11:37:50;472388.00;1.57;814.30;0.00;0.00;0.62;;;;;21.50;1.00;;;;;;2272576;61;1976;-86
2022/09/26 11:40:40;599482.00;2.00;1033.33;0.00;0.00;0.62;;;;;21.70;1.00;;;;;;2272666;61;809;-87
2022/09/26 11:43:32;415353.00;1.38;716.20;0.00;0.00;0.62;;;;;21.50;1.00;;;;;;2272509;61;1462;-86
2022/09/26 11:46:15;348630.00;1.16;601.51;0.00;0.00;0.62;;;;;21.10;1.00;;;;;;2272435;61;1565;-86
2022/09/26 11:49:00;663060.00;2.21;1143.24;50920.00;0.17;88.78;;;;;20.90;1.00;;;;;;2272398;61;995;-87
2022/09/26 11:51:50;941831.00;3.14;1629.71;154817.00;0.52;268.11;;;;;21.20;1.00;;;;;;2272441;61;1432;-87
2022/09/26 11:54:49;647713.00;2.16;1116.68;64417.00;0.21;112.11;;;;;21.40;1.00;;;;;;2272556;61;1090;-88
2022/09/26 11:57:37;523187.00;1.74;901.75;0.00;0.00;0.62;;;;;21.50;1.00;;;;;;2272484;61;1922;-88
2022/09/26 12:00:23;630511.00;2.10;1086.93;0.00;0.00;0.62;;;;;21.60;1.00;;;;;;2272540;61;1430;-89
2022/09/26 12:03:35;676145.00;2.25;1165.90;0.00;0.00;0.62;;;;;21.40;1.00;;;;;;2272474;61;1759;-87
2022/09/26 12:06:17;558814.00;1.86;963.16;9026.00;0.03;16.26;;;;;20.60;1.00;;;;;;2268907;61;1350;-87
2022/09/26 12:09:08;433206.00;1.44;746.90;0.00;0.00;0.62;;;;;20.40;1.00;;;;;;2272266;61;1094;-88
2022/09/26 12:11:49;629068.00;2.10;1084.44;0.00;0.00;0.62;;;;;20.70;1.00;;;;;;2272478;61;1472;-87
2022/09/26 12:14:35;474540.00;1.58;818.00;0.00;0.00;0.62;;;;;21.00;1.00;;;;;;2272473;61;1437;-87
2022/09/26 12:17:13;556882.00;1.86;959.82;0.00;0.00;0.62;;;;;21.30;1.00;;;;;;2272475;61;1918;-87
2022/09/26 12:19:51;475759.00;1.59;820.10;0.00;0.00;0.62;;;;;21.40;1.00;;;;;;2272525;61;1130;-87
2022/09/26 12:22:29;719515.00;2.40;1241.10;0.00;0.00;0.62;;;;;21.50;1.00;;;;;;2272570;61;1415;-88
2022/09/26 12:25:21;730742.00;2.44;1260.59;0.00;0.00;0.62;;;;;21.70;1.00;;;;;;2272528;61;1002;-86
2022/09/26 12:28:02;489819.00;1.63;844.30;0.00;0.00;0.62;;;;;22.00;1.00;;;;;;2272504;61;1430;-89
2022/09/26 12:30:37;556748.00;1.86;959.59;49519.00;0.17;86.35;;;;;21.90;1.00;;;;;;2272390;61;1630;-88
2022/09/26 12:33:40;443023.00;1.48;763.78;0.00;0.00;0.62;;;;;21.80;1.00;;;;;;2272392;61;1455;-87
2022/09/26 12:36:21;551667.00;1.84;950.83;0.00;0.00;0.62;;;;;21.70;1.00;;;;;;2272326;61;2015;-87
2022/09/26 12:39:11;567485.00;1.89;978.11;0.00;0.00;0.62;;;;;21.40;1.00;;;;;;2272463;61;1577;-87
2022/09/26 12:41:57;369418.00;1.23;637.24;0.00;0.00;0.62;;;;;21.20;1.00;;;;;;2272424;61;1597;-88
2022/09/26 12:44:56;460110.00;1.53;793.17;0.00;0.00;0.62;;;;;21.40;1.00;;;;;;2272421;61;1588;-87
2022/09/26 12:47:40;559685.00;1.87;964.66;0.00;0.00;0.62;;;;;21.40;1.00;;;;;;2272384;61;972;-86
2022/09/26 12:50:17;696596.00;2.32;1201.34;0.00;0.00;0.62;;;;;21.20;1.00;;;;;;2272292;61;2251;-88
2022/09/26 12:53:38;492222.00;1.64;848.43;0.00;0.00;0.62;;;;;21.20;1.00;;;;;;2272394;61;1405;-86
2022/09/26 12:56:08;961703.00;3.21;1664.76;55040.00;0.18;95.90;;;;;21.00;1.00;;;;;;2248558;61;1081;-89
2022/09/26 12:58:54;849930.00;2.83;1468.35;0.00;0.00;0.62;;;;;20.30;1.00;;;;;;2271605;61;2001;-88
2022/09/26 13:01:43;756110.00;2.52;1304.68;47595.00;0.16;83.03;;;;;19.80;1.00;;;;;;2272255;61;1750;-87
2022/09/26 13:04:36;713350.00;2.38;1230.40;69839.00;0.23;121.48;;;;;18.80;1.00;;;;;;2272365;61;1449;-88
2022/09/26 13:07:16;643344.00;2.14;1109.12;0.00;0.00;0.62;;;;;17.90;1.00;;;;;;2272250;61;1537;-86
2022/09/26 13:10:07;668419.00;2.23;1152.52;0.00;0.00;0.62;;;;;17.90;1.00;;;;;;2272353;61;1216;-87
2022/09/26 13:12:58;426178.00;1.42;734.81;0.00;0.00;0.62;;;;;18.00;1.00;;;;;;2272341;61;1378;-86
2022/09/26 13:15:34;742525.00;2.48;1281.06;64000.00;0.21;111.39;;;;;18.30;1.00;;;;;;2272225;61;1201;-87
2022/09/26 13:18:09;559982.00;1.87;965.17;59057.00;0.20;102.85;;;;;18.10;1.00;;;;;;2272228;61;1972;-87
2022/09/26 13:20:42;379807.00;1.27;655.09;0.00;0.00;0.62;;;;;18.40;1.00;;;;;;2272311;61;1339;-87
2022/09/26 13:23:17;603740.00;2.01;1040.68;0.00;0.00;0.62;;;;;18.50;1.00;;;;;;2272310;61;1367;-87
2022/09/26 13:25:51;627413.00;2.09;1081.58;38333.00;0.13;67.00;;;;;18.60;1.00;;;;;;2272267;61;1193;-87
2022/09/26 13:28:26;598101.00;1.99;1030.94;0.00;0.00;0.62;;;;;18.70;1.00;;;;;;2272212;61;1592;-87
2022/09/26 13:31:00;565835.00;1.89;975.26;0.00;0.00;0.62;;;;;19.00;1.00;;;;;;2272217;61;972;-87
2022/09/26 13:33:47;699516.00;2.33;1206.40;803.00;0.00;2.01;;;;;19.20;1.00;;;;;;2272168;61;1519;-86
2022/09/26 13:38:58;1579388.00;5.26;2793.41;59067.00;0.20;102.86;;;;;19.10;1.00;;;;;;2269788;61;1358;-87
2022/09/26 13:41:53;670781.00;2.24;1156.61;42424.00;0.14;74.08;;;;;18.70;1.00;;;;;;2268109;61;1098;-86
2022/09/26 13:44:34;885520.00;2.95;1530.70;50169.00;0.17;87.48;;;;;18.80;1.00;;;;;;2264026;61;1510;-85
2022/09/26 13:47:16;930340.00;3.10;1609.47;160215.00;0.53;277.41;;;;;19.10;1.00;;;;;;2275032;55;3722;-86
2022/09/26 13:49:54;1229574.00;4.10;2143.78;63672.00;0.21;110.82;;;;;19.20;1.00;;;;;;2275942;61;1637;-86
2022/09/26 13:55:43;541394.00;1.80;933.13;0.00;0.00;0.62;;;;;19.20;1.00;;;;;;2272110;61;1527;-87
2022/09/26 14:00:51;1256238.00;4.19;2192.24;2310.00;0.01;4.62;;;;;19.40;1.00;;;;;;2266555;61;1342;-86
2022/09/26 14:06:10;1042342.00;3.47;1807.61;53556.00;0.18;93.34;;;;;19.30;1.00;;;;;;2269570;61;1369;-86
2022/09/26 14:12:17;458770.00;1.53;790.87;0.00;0.00;0.62;;;;;18.70;1.00;;;;;;2264204;61;1425;-88
2022/09/26 14:15:06;862988.00;2.88;1491.21;0.00;0.00;0.62;;;;;18.70;1.00;;;;;;2268494;61;1467;-86
2022/09/26 14:18:12;802232.00;2.67;1385.02;93222.00;0.31;161.87;;;;;18.90;1.00;;;;;;2268790;61;1919;-86
2022/09/26 14:21:00;505744.00;1.69;871.71;0.00;0.00;0.62;;;;;19.30;1.00;;;;;;2268805;61;920;-87
2022/09/26 14:23:39;837995.00;2.79;1447.47;0.00;0.00;0.62;;;;;19.60;1.00;;;;;;2268447;61;1346;-87
2022/09/26 14:26:09;593686.00;1.98;1023.32;0.00;0.00;0.62;;;;;19.60;1.00;;;;;;2268828;61;1330;-87
2022/09/26 14:28:38;543996.00;1.81;937.61;0.00;0.00;0.62;;;;;19.80;1.00;;;;;;2268791;61;1026;-86
2022/09/26 14:31:37;719605.00;2.40;1241.25;0.00;0.00;0.62;;;;;19.70;1.00;;;;;;2268737;61;1293;-87
2022/09/26 14:34:19;384636.00;1.28;663.39;0.00;0.00;0.62;;;;;19.20;1.00;;;;;;2268786;61;1383;-86
2022/09/26 14:36:56;486784.00;1.62;839.07;0.00;0.00;0.62;;;;;18.90;1.00;;;;;;2268731;61;1973;-86
2022/09/26 14:39:32;715964.00;2.39;1234.93;0.00;0.00;0.62;;;;;19.00;1.00;;;;;;2268663;61;1575;-88
2022/09/26 14:42:09;579736.00;1.93;999.24;0.00;0.00;0.62;;;;;19.20;1.00;;;;;;2268714;61;1331;-87
2022/09/26 14:44:37;629867.00;2.10;1085.82;0.00;0.00;0.62;;;;;19.20;1.00;;;;;;2268756;61;1010;-88
2022/09/26 14:47:14;634583.00;2.12;1093.97;30121.00;0.10;52.79;;;;;18.70;1.00;;;;;;2268629;61;1023;-87
2022/09/26 14:49:43;554729.00;1.85;956.11;0.00;0.00;0.62;;;;;18.50;1.00;;;;;;2268693;61;1209;-87
2022/09/26 14:52:20;926539.00;3.09;1602.78;0.00;0.00;0.62;;;;;18.60;1.00;;;;;;2268512;61;1360;-87
2022/09/26 14:54:48;716767.00;2.39;1236.33;0.00;0.00;0.62;;;;;18.50;1.00;;;;;;2268730;61;1540;-84
2022/09/26 14:57:24;707578.00;2.36;1220.38;0.00;0.00;0.62;;;;;18.00;1.00;;;;;;2268747;61;1912;-87
2022/09/26 14:59:51;633690.00;2.11;1092.43;0.00;0.00;0.62;;;;;18.00;1.00;;;;;;2268472;61;1055;-90
2022/09/26 15:12:22;2096786.00;6.99;3824.99;135969.00;0.45;235.62;;;;;16.90;1.00;;;;;;1945372;56;3629;-89
2022/09/26 15:24:53;2322441.00;7.74;4308.79;70922.00;0.24;123.35;;;;;16.80;1.00;;;;;;2298595;55;3679;-88
2022/09/26 15:59:43;1497981.00;4.99;2639.32;0.00;0.00;0.62;;;;;18.10;1.00;;;;;;2274175;61;1312;-88
2022/09/26 16:02:22;873426.00;2.91;1509.49;0.00;0.00;0.62;;;;;18.20;1.00;;;;;;2280619;56;3716;-89
2022/09/26 16:04:53;597895.00;1.99;1030.59;0.00;0.00;0.62;;;;;18.40;1.00;;;;;;2260928;61;1586;-90
2022/09/26 16:14:53;968562.00;3.23;1676.87;0.00;0.00;0.62;;;;;18.50;1.00;;;;;;2269820;61;1429;-88
2022/09/26 16:17:24;436258.00;1.45;752.15;0.00;0.00;0.62;;;;;18.60;1.00;;;;;;2352708;40;3575;-87
2022/09/26 17:56:06;1625581.00;5.42;2881.73;0.00;0.00;0.62;;;;;18.10;1.00;;;;;;2291360;55;3724;-86
2022/09/26 18:01:41;2019641.00;6.73;3664.73;181816.00;0.61;314.62;;;;;18.10;1.00;;;;;;885832;56;3636;-88
2022/09/26 18:04:16;1986931.00;6.62;3597.52;0.00;0.00;0.62;;;;;18.30;1.00;;;;;;826528;56;3698;-91
2022/09/26 18:32:01;1907233.00;6.36;3435.55;35665.00;0.12;62.39;;;;;18.20;1.00;;;;;;2289996;60;1944;-89
2022/09/26 18:37:00;1365776.00;4.55;2393.00;0.00;0.00;0.62;;;;;18.90;1.00;;;;;;2290167;60;1299;-91
2022/09/26 18:39:27;535554.00;1.79;923.06;0.00;0.00;0.62;;;;;18.80;1.00;;;;;;2288324;60;1397;-90
2022/09/26 18:46:53;1576734.00;5.26;2788.36;0.00;0.00;0.62;;;;;18.70;1.00;;;;;;2290072;60;1323;-87
2022/09/26 18:49:21;428396.00;1.43;738.63;0.00;0.00;0.62;;;;;18.80;1.00;;;;;;2288281;60;1443;-87
2022/09/26 18:51:49;519787.00;1.73;895.90;0.00;0.00;0.62;;;;;18.70;1.00;;;;;;2288236;60;2000;-91
2022/09/26 19:30:04;617756.00;2.06;1064.89;0.00;0.00;0.62;;;;;17.10;1.00;;;;;;2320292;40;2509;-88
2022/09/26 19:32:35;521047.00;1.74;898.07;40207.00;0.13;70.25;;;;;17.30;1.00;;;;;;2280648;61;2035;-85
2022/09/26 19:35:07;538672.00;1.80;928.43;0.00;0.00;0.62;;;;;17.60;1.00;;;;;;2280790;61;1132;-88
2022/09/26 19:37:34;467733.00;1.56;806.29;0.00;0.00;0.62;;;;;17.60;1.00;;;;;;2280787;61;1631;-84
2022/09/26 19:40:01;539338.00;1.80;929.58;0.00;0.00;0.62;;;;;17.40;1.00;;;;;;2280699;61;993;-88
2022/09/26 19:42:28;617336.00;2.06;1064.16;0.00;0.00;0.62;;;;;17.50;1.00;;;;;;2280750;61;1274;-86
2022/09/26 19:44:57;538256.00;1.79;927.72;0.00;0.00;0.62;;;;;17.40;1.00;;;;;;2280782;61;1057;-88
2022/09/26 19:47:28;375560.00;1.25;647.79;0.00;0.00;0.62;;;;;17.40;1.00;;;;;;2280717;61;1748;-85
2022/09/26 19:49:55;451222.00;1.50;777.88;24537.00;0.08;43.13;;;;;17.20;1.00;;;;;;2280741;61;929;-87
2022/09/26 19:52:22;635405.00;2.12;1095.39;21807.00;0.07;38.40;;;;;17.30;1.00;;;;;;2282453;60;2005;-87
2022/09/26 19:54:49;562652.00;1.88;969.77;0.00;0.00;0.62;;;;;17.60;1.00;;;;;;2284825;60;1126;-85
2022/09/26 19:57:17;612153.00;2.04;1055.21;87296.00;0.29;151.64;;;;;17.90;1.00;;;;;;2284804;60;947;-86
2022/09/26 19:59:45;439307.00;1.46;757.39;17102.00;0.06;30.25;;;;;17.70;1.00;;;;;;2284850;60;1040;-87
2022/09/26 20:02:17;592814.00;1.98;1021.81;0.00;0.00;0.62;;;;;17.40;1.00;;;;;;2283499;60;1427;-87
2022/09/26 20:04:46;523555.00;1.75;902.39;0.00;0.00;0.62;;;;;17.30;1.00;;;;;;2280675;61;1236;-85
2022/09/26 20:07:15;579454.00;1.93;998.76;0.00;0.00;0.62;;;;;16.90;1.00;;;;;;2280684;61;1115;-87
2022/09/26 20:09:42;645449.00;2.15;1112.76;0.00;0.00;0.62;;;;;16.80;1.00;;;;;;2280694;61;2066;-88
2022/09/26 20:12:10;434563.00;1.45;749.23;0.00;0.00;0.62;;;;;16.90;1.00;;;;;;2281472;60;1915;-87
2022/09/26 20:14:38;445326.00;1.48;767.74;0.00;0.00;0.62;;;;;16.80;1.00;;;;;;2284495;60;1067;-87
2022/09/26 20:17:16;433177.00;1.44;746.85;0.00;0.00;0.62;;;;;16.90;1.00;;;;;;2284793;60;1150;-88
2022/09/26 20:19:45;427772.00;1.43;737.55;0.00;0.00;0.62;;;;;16.90;1.00;;;;;;2284757;60;1029;-85
2022/09/26 20:22:15;494620.00;1.65;852.56;0.00;0.00;0.62;;;;;17.00;1.00;;;;;;2284684;60;1299;-87
2022/09/26 20:24:43;556237.00;1.85;958.71;0.00;0.00;0.62;;;;;17.10;1.00;;;;;;2284433;60;1026;-87
2022/09/26 20:27:17;669832.00;2.23;1154.96;0.00;0.00;0.62;;;;;16.90;1.00;;;;;;2284712;60;1997;-86
2022/09/26 20:32:30;515095.00;1.72;887.82;0.00;0.00;0.62;;;;;17.30;1.00;;;;;;2280744;61;1991;-87
2022/09/26 20:34:59;380119.00;1.27;655.63;0.00;0.00;0.62;;;;;17.30;1.00;;;;;;2280664;61;1216;-84
2022/09/26 20:37:27;410702.00;1.37;708.20;0.00;0.00;0.62;;;;;17.40;1.00;;;;;;2280619;61;1101;-87
2022/09/26 20:39:55;478732.00;1.60;825.22;0.00;0.00;0.62;;;;;17.40;1.00;;;;;;2280616;61;1640;-86
2022/09/26 20:42:26;713087.00;2.38;1229.94;27407.00;0.09;48.09;;;;;17.60;1.00;;;;;;2284113;60;1615;-86
2022/09/26 20:44:55;375307.00;1.25;647.36;0.00;0.00;0.62;;;;;17.30;1.00;;;;;;2284780;60;1010;-89
2022/09/26 20:47:22;519661.00;1.73;895.68;0.00;0.00;0.62;;;;;17.10;1.00;;;;;;2284663;60;1576;-88
2022/09/26 20:49:54;624521.00;2.08;1076.58;0.00;0.00;0.62;;;;;17.20;1.00;;;;;;2284636;60;1111;-89
2022/09/26 20:52:25;612042.00;2.04;1055.02;0.00;0.00;0.62;;;;;17.20;1.00;;;;;;2284599;60;1974;-90
2022/09/26 20:54:53;686246.00;2.29;1183.40;0.00;0.00;0.62;;;;;17.00;1.00;;;;;;2284577;60;1142;-89
2022/09/26 20:57:21;675392.00;2.25;1164.59;0.00;0.00;0.62;;;;;17.00;1.00;;;;;;2284485;60;987;-86
2022/09/26 20:59:48;711611.00;2.37;1227.38;0.00;0.00;0.62;;;;;16.70;1.00;;;;;;2284493;60;1600;-88
2022/09/26 21:02:35;857919.00;2.86;1482.33;0.00;0.00;0.62;;;;;16.40;1.00;;;;;;2284317;60;1806;-88
2022/09/26 21:05:03;950190.00;3.17;1644.45;71228.00;0.24;123.88;;;;;16.70;1.00;;;;;;2305421;56;3872;-92
2022/09/26 21:07:33;536273.00;1.79;924.30;0.00;0.00;0.62;;;;;16.50;1.00;;;;;;2285187;61;1040;-89
2022/09/26 21:14:55;1703457.00;5.68;3032.14;0.00;0.00;0.62;;;;;16.50;1.00;;;;;;2278017;61;1431;-89
2022/09/26 21:19:52;1827360.00;6.09;3275.65;0.00;0.00;0.62;;;;;16.40;1.00;;;;;;2282184;60;1391;-89
2022/09/26 21:22:25;822128.00;2.74;1419.74;0.00;0.00;0.62;;;;;16.40;1.00;;;;;;2279236;60;1671;-88
2022/09/26 21:24:54;986494.00;3.29;1708.57;0.00;0.00;0.62;;;;;16.60;1.00;;;;;;2286430;55;3718;-87
2022/09/26 21:27:21;1297849.00;4.33;2268.17;856.00;0.00;2.10;;;;;16.40;1.00;;;;;;2283912;60;1758;-87
2022/09/26 21:29:48;791911.00;2.64;1367.02;0.00;0.00;0.62;;;;;16.40;1.00;;;;;;2284496;60;1719;-88
2022/09/26 21:32:20;666747.00;2.22;1149.62;0.00;0.00;0.62;;;;;16.30;1.00;;;;;;2286314;55;3763;-87
2022/09/26 21:34:55;827887.00;2.76;1429.80;27659.00;0.09;48.53;;;;;16.50;1.00;;;;;;2284299;60;1684;-89
2022/09/26 21:39:53;1867999.00;6.23;3356.71;0.00;0.00;0.62;;;;;16.40;1.00;;;;;;2289067;55;3643;-87
2022/09/26 21:42:20;710011.00;2.37;1224.60;0.00;0.00;0.62;;;;;16.10;1.00;;;;;;2288224;60;1335;-87
2022/09/26 21:47:18;1984427.00;6.61;3592.40;52817.00;0.18;92.06;;;;;15.80;1.00;;;;;;2290087;60;1401;-91
2022/09/26 21:49:46;881383.00;2.94;1523.45;64283.00;0.21;111.88;;;;;15.90;1.00;;;;;;2288298;60;974;-89
2022/09/26 21:54:58;1495211.00;4.98;2634.11;0.00;0.00;0.62;;;;;15.60;1.00;;;;;;2281719;61;1400;-89
2022/09/26 21:57:29;905558.00;3.02;1565.88;0.00;0.00;0.62;;;;;15.60;1.00;;;;;;2290543;55;3742;-87
2022/09/26 22:02:24;1973323.00;6.58;3569.69;0.00;0.00;0.62;;;;;15.50;1.00;;;;;;2278080;61;1400;-89
2022/09/26 22:07:33;1869823.00;6.23;3360.36;56815.00;0.19;98.97;;;;;15.60;1.00;;;;;;2291909;40;3533;-88
2022/09/26 22:17:45;1883509.00;6.28;3387.81;42023.00;0.14;73.39;;;;;15.20;1.00;;;;;;2286959;61;1005;-88
2022/09/26 23:38:46;1688436.00;5.63;3002.98;120461.00;0.40;208.88;;;;;16.40;1.00;;;;;;2286882;61;1026;-89
2022/09/26 23:41:13;668811.00;2.23;1153.19;0.00;0.00;0.62;;;;;15.80;1.00;;;;;;2285355;61;1167;-90
2022/09/26 23:44:03;641399.00;2.14;1105.76;0.00;0.00;0.62;;;;;15.50;1.00;;;;;;2522242;40;3606;31
